Impacts METAR Board
IDs:

KFLL - Ft Lauderdale-Hollyw, FL, US

Updated at: 2000 UTC 21 Sep 2021
Potential Impact None Slight Moderate High
Time 21/08Z 21/09Z 21/10Z 21/11Z 21/12Z 21/13Z 21/14Z 21/15Z 21/16Z 21/17Z 21/18Z 21/19Z 21/20Z
Temp79 82 76 77 79 79 78 79 79 80 82 85 84
Dewpt79 80 76 77 76 79 75 76 79 80 81 80 81
Altim29.97 29.96 29.96 29.97 30.00 30.02 30.03 30.04 30.04 30.04 30.01 30.00 29.99
VIS10 10 8 10 10 10 6 9 10 10 10 10 10
CIG250 250 80 110 50 90 25 90 110 100 120 120 --
CoverBKNBKNBKNBKNBKNBKNBKNBKNBKNBKNOVCOVCSCT
FltCatVFRVFRVFRVFRVFRVFRMVFRVFRVFRVFRVFRVFRVFR
WX-----RA-RA-RA---RA BR-RA-RA-RA----TS
WDir0800000130035010307060
WSpd0 4 0 0 0 0 12 0 3 4 3 4 6
WGst-- -- -- -- -- -- 18 -- -- -- -- -- --
Raw hourly METARs
KFLL 210753Z 00000KT 10SM FEW018 BKN250 26/26 A2997 RMK AO2 SLP147 T02610261
KFLL 210853Z 08004KT 10SM SCT020 SCT032 BKN250 28/27 A2996 RMK AO2 TSB15E37 SLP143 OCNL LTGICCG DSNT W CB DSNT W MOV NW T02780267 56012
KFLL 211003Z 00000KT 8SM -RA SCT030 BKN080 BKN110 24/24 A2996 RMK AO2 TSE02 CB DSNT W MOV NW T02440244 PNO $
KFLL 211053Z 00000KT 10SM -RA FEW080 BKN110 25/25 A2997 RMK AO2 TSE02 SLP149 CB DSNT W MOV NW T02500250 PNO $
KFLL 211153Z 00000KT 10SM -RA SCT023CB BKN050 BKN095 26/24 A3000 RMK AO2 RAE09B27 SLP157 CB OHD-N-E AND DSNT SW MOV NW P0008 6//// 7//// T02610244 10278 20244 53014 $
KFLL 211253Z 00000KT 10SM SCT021CB BKN090 BKN180 26/26 A3002 RMK AO2 LTG DSNT N RAE12 SLP163 CB OHD-NW-NE AND DSNT N MOV NW VCSH NW-NE AND SW P0000 T02610261
KFLL 211353Z 13012G18KT 6SM -RA BR SCT020CB BKN025 BKN037 26/24 A3003 RMK AO2 RAB44 TSE28 SLP169 CB OHD-ALQDS MOV NW P0002 T02560239
KFLL 211453Z 00000KT 9SM -RA FEW026CB SCT070 BKN090 26/24 A3004 RMK AO2 RAE18B51 SLP172 CB NW-NE MOV NW P0005 60007 T02610244 51009
KFLL 211553Z 35003KT 10SM -RA FEW025 BKN110 26/26 A3004 RMK AO2 SLP173 CB DSNT N P0001 T02610261
KFLL 211653Z 01004KT 10SM -RA FEW055 BKN100 BKN120 27/27 A3004 RMK AO2 SLP171 P0002 T02670267
KFLL 211753Z 03003KT 10SM FEW030 BKN120 OVC250 28/27 A3001 RMK AO2 RAE17 SLP160 P0000 60010 T02780272 10278 20244 58012
KFLL 211853Z 07004KT 10SM FEW029 BKN120 OVC250 29/27 A3000 RMK AO2 LTG DSNT SW SLP158 CB DSNT S T02940267
KFLL 211953Z 06006KT 10SM TS FEW021 FEW028CB FEW110 SCT150 BKN200 BKN250 29/27 A2999 RMK AO2 LTG DSNT SW AND W TSB53 SLP156 OCNL LTGICCG SW TS SW MOV NW CB DSNT SW T02890272



Page loaded:  20:37 UTC  |   01:37 PM Pacific  |   02:37 PM Mountain  |   03:37 PM Central  |   04:37 PM Eastern

 

ADVISORIES

FORECASTS

FORECASTS

OBSERVATIONS

USER TOOLS

ABOUT US